Bullhead City Fort Mohave, Arizona
Current Conditions -  °F | °C
As of 4:15 PM on Wednesday 26 Nov 2014 (Local Time) from KIFP Reporting Station
Light Rain Light Rain  
Wind Chill: 73°   Ceiling: Unl
Heat Index: 73°   Visibility: 10mi
Dew Point: 16°   Wind: 24mph
Humidity: 11%   Direction: 10°N
Pressure: 30.2"   Gusts: 29mph
Location:  35.0298°N, 114.577°W
Report Text: KIFP 262315Z AUTO 01021G25KT 10SM -RA CLR 23/M09 A3020 RMK AO2
Loading
Personal Weather Stations






























Interactive Weather Map New forecast layout! Learn more

10-Day Weather Forecast

Advertisements
Track Severe Weather on mobile